sensor_id;sensor_type;location;lat;lon;timestamp;temperature;humidity
51902;DHT22;37929;53.218;6.548;2023-03-31T00:01:36;10.20;99.90
51902;DHT22;37929;53.218;6.548;2023-03-31T00:04:08;10.20;99.90
51902;DHT22;37929;53.218;6.548;2023-03-31T00:06:36;10.20;99.90
51902;DHT22;37929;53.218;6.548;2023-03-31T00:09:16;10.20;99.90
51902;DHT22;37929;53.218;6.548;2023-03-31T00:11:44;10.20;99.90
51902;DHT22;37929;53.218;6.548;2023-03-31T00:14:10;10.20;99.90
51902;DHT22;37929;53.218;6.548;2023-03-31T00:16:37;10.30;99.90
51902;DHT22;37929;53.218;6.548;2023-03-31T00:19:04;10.30;99.90
51902;DHT22;37929;53.218;6.548;2023-03-31T00:21:30;10.30;99.90
51902;DHT22;37929;53.218;6.548;2023-03-31T00:24:02;10.30;99.90
51902;DHT22;37929;53.218;6.548;2023-03-31T00:26:29;10.30;99.90
51902;DHT22;37929;53.218;6.548;2023-03-31T00:28:55;10.40;99.90
51902;DHT22;37929;53.218;6.548;2023-03-31T00:31:22;10.40;99.90
51902;DHT22;37929;53.218;6.548;2023-03-31T00:33:48;10.30;99.90
51902;DHT22;37929;53.218;6.548;2023-03-31T00:36:15;10.30;99.90
51902;DHT22;37929;53.218;6.548;2023-03-31T00:39:02;10.30;99.90
51902;DHT22;37929;53.218;6.548;2023-03-31T00:41:29;10.30;99.90
51902;DHT22;37929;53.218;6.548;2023-03-31T00:46:37;10.30;99.90
51902;DHT22;37929;53.218;6.548;2023-03-31T00:49:05;10.20;99.90
51902;DHT22;37929;53.218;6.548;2023-03-31T00:51:34;10.20;99.90
51902;DHT22;37929;53.218;6.548;2023-03-31T00:54:03;10.20;99.90
51902;DHT22;37929;53.218;6.548;2023-03-31T00:56:39;10.20;99.90
51902;DHT22;37929;53.218;6.548;2023-03-31T00:59:09;10.20;99.90
51902;DHT22;37929;53.218;6.548;2023-03-31T01:01:35;10.10;99.90
51902;DHT22;37929;53.218;6.548;2023-03-31T01:04:04;10.10;99.90
51902;DHT22;37929;53.218;6.548;2023-03-31T01:06:32;10.10;99.90
51902;DHT22;37929;53.218;6.548;2023-03-31T01:08:59;10.00;99.90
51902;DHT22;37929;53.218;6.548;2023-03-31T01:11:33;10.00;99.90
51902;DHT22;37929;53.218;6.548;2023-03-31T01:14:00;10.00;99.90
51902;DHT22;37929;53.218;6.548;2023-03-31T01:16:25;10.00;99.90
51902;DHT22;37929;53.218;6.548;2023-03-31T01:18:51;9.90;99.90
51902;DHT22;37929;53.218;6.548;2023-03-31T01:27:11;9.90;99.90
51902;DHT22;37929;53.218;6.548;2023-03-31T01:40:30;9.90;99.90
51902;DHT22;37929;53.218;6.548;2023-03-31T01:43:32;9.80;99.90
51902;DHT22;37929;53.218;6.548;2023-03-31T01:46:47;9.80;99.90
51902;DHT22;37929;53.218;6.548;2023-03-31T01:54:20;9.70;99.90
51902;DHT22;37929;53.218;6.548;2023-03-31T02:00:08;9.70;99.90
51902;DHT22;37929;53.218;6.548;2023-03-31T02:02:58;9.70;99.90
51902;DHT22;37929;53.218;6.548;2023-03-31T02:05:54;9.60;99.90
51902;DHT22;37929;53.218;6.548;2023-03-31T02:08:30;9.60;99.90
51902;DHT22;37929;53.218;6.548;2023-03-31T02:10:58;9.60;99.90
51902;DHT22;37929;53.218;6.548;2023-03-31T02:13:26;9.60;99.90
51902;DHT22;37929;53.218;6.548;2023-03-31T02:15:56;9.60;99.90
51902;DHT22;37929;53.218;6.548;2023-03-31T02:18:26;9.60;99.90
51902;DHT22;37929;53.218;6.548;2023-03-31T02:20:56;9.50;99.90
51902;DHT22;37929;53.218;6.548;2023-03-31T02:23:25;9.50;99.90
51902;DHT22;37929;53.218;6.548;2023-03-31T02:26:06;9.50;99.90
51902;DHT22;37929;53.218;6.548;2023-03-31T02:28:34;9.50;99.90
51902;DHT22;37929;53.218;6.548;2023-03-31T02:33:32;9.50;99.90
51902;DHT22;37929;53.218;6.548;2023-03-31T02:35:59;9.50;99.90
51902;DHT22;37929;53.218;6.548;2023-03-31T02:38:25;9.50;99.90
51902;DHT22;37929;53.218;6.548;2023-03-31T02:40:51;9.50;99.90
51902;DHT22;37929;53.218;6.548;2023-03-31T02:43:17;9.50;99.90
51902;DHT22;37929;53.218;6.548;2023-03-31T02:45:45;9.50;99.90
51902;DHT22;37929;53.218;6.548;2023-03-31T02:48:22;9.50;99.90
51902;DHT22;37929;53.218;6.548;2023-03-31T03:02:35;9.60;99.90
51902;DHT22;37929;53.218;6.548;2023-03-31T03:05:27;9.70;99.90
51902;DHT22;37929;53.218;6.548;2023-03-31T03:13:16;9.70;99.90
51902;DHT22;37929;53.218;6.548;2023-03-31T03:15:54;9.70;99.90
51902;DHT22;37929;53.218;6.548;2023-03-31T03:18:20;9.70;99.90
51902;DHT22;37929;53.218;6.548;2023-03-31T03:20:46;9.60;99.90
51902;DHT22;37929;53.218;6.548;2023-03-31T03:23:17;9.60;99.90
51902;DHT22;37929;53.218;6.548;2023-03-31T03:25:43;9.60;99.90
51902;DHT22;37929;53.218;6.548;2023-03-31T03:28:09;9.60;99.90
51902;DHT22;37929;53.218;6.548;2023-03-31T03:30:35;9.60;99.90
51902;DHT22;37929;53.218;6.548;2023-03-31T03:33:01;9.60;99.90
51902;DHT22;37929;53.218;6.548;2023-03-31T03:35:28;9.60;99.90
51902;DHT22;37929;53.218;6.548;2023-03-31T03:37:54;9.60;99.90
51902;DHT22;37929;53.218;6.548;2023-03-31T03:40:19;9.60;99.90
51902;DHT22;37929;53.218;6.548;2023-03-31T03:42:45;9.60;99.90
51902;DHT22;37929;53.218;6.548;2023-03-31T03:45:11;9.60;99.90
51902;DHT22;37929;53.218;6.548;2023-03-31T03:47:36;9.60;99.90
51902;DHT22;37929;53.218;6.548;2023-03-31T03:50:03;9.60;99.90
51902;DHT22;37929;53.218;6.548;2023-03-31T03:52:29;9.60;99.90
51902;DHT22;37929;53.218;6.548;2023-03-31T03:54:55;9.60;99.90
51902;DHT22;37929;53.218;6.548;2023-03-31T03:57:20;9.60;99.90
51902;DHT22;37929;53.218;6.548;2023-03-31T03:59:46;9.70;99.90
51902;DHT22;37929;53.218;6.548;2023-03-31T04:02:12;9.70;99.90
51902;DHT22;37929;53.218;6.548;2023-03-31T04:04:38;9.70;99.90
51902;DHT22;37929;53.218;6.548;2023-03-31T04:07:04;9.70;99.90
51902;DHT22;37929;53.218;6.548;2023-03-31T04:09:29;9.70;99.90
51902;DHT22;37929;53.218;6.548;2023-03-31T04:11:55;9.70;99.90
51902;DHT22;37929;53.218;6.548;2023-03-31T04:14:21;9.70;99.90
51902;DHT22;37929;53.218;6.548;2023-03-31T04:16:47;9.70;99.90
51902;DHT22;37929;53.218;6.548;2023-03-31T04:19:13;9.70;99.90
51902;DHT22;37929;53.218;6.548;2023-03-31T04:21:42;9.60;99.90
51902;DHT22;37929;53.218;6.548;2023-03-31T04:24:10;9.60;99.90
51902;DHT22;37929;53.218;6.548;2023-03-31T04:26:37;9.60;99.90
51902;DHT22;37929;53.218;6.548;2023-03-31T04:29:11;9.60;99.90
51902;DHT22;37929;53.218;6.548;2023-03-31T04:31:37;9.60;99.90
51902;DHT22;37929;53.218;6.548;2023-03-31T04:34:10;9.60;99.90
51902;DHT22;37929;53.218;6.548;2023-03-31T04:36:42;9.60;99.90
51902;DHT22;37929;53.218;6.548;2023-03-31T04:39:13;9.60;99.90
51902;DHT22;37929;53.218;6.548;2023-03-31T04:41:38;9.60;99.90
51902;DHT22;37929;53.218;6.548;2023-03-31T04:44:05;9.60;99.90
51902;DHT22;37929;53.218;6.548;2023-03-31T04:46:32;9.60;99.90
51902;DHT22;37929;53.218;6.548;2023-03-31T04:48:58;9.60;99.90
51902;DHT22;37929;53.218;6.548;2023-03-31T04:51:25;9.50;99.90
51902;DHT22;37929;53.218;6.548;2023-03-31T04:53:51;9.60;99.90
51902;DHT22;37929;53.218;6.548;2023-03-31T04:56:17;9.60;99.90
51902;DHT22;37929;53.218;6.548;2023-03-31T04:58:43;9.60;99.90
51902;DHT22;37929;53.218;6.548;2023-03-31T05:01:09;9.60;99.90
51902;DHT22;37929;53.218;6.548;2023-03-31T05:03:38;9.60;99.90
51902;DHT22;37929;53.218;6.548;2023-03-31T05:06:04;9.60;99.90
51902;DHT22;37929;53.218;6.548;2023-03-31T05:08:30;9.60;99.90
51902;DHT22;37929;53.218;6.548;2023-03-31T05:10:56;9.60;99.90
51902;DHT22;37929;53.218;6.548;2023-03-31T05:13:22;9.60;99.90
51902;DHT22;37929;53.218;6.548;2023-03-31T05:15:48;9.60;99.90
51902;DHT22;37929;53.218;6.548;2023-03-31T05:18:16;9.60;99.90
51902;DHT22;37929;53.218;6.548;2023-03-31T05:20:42;9.60;99.90
51902;DHT22;37929;53.218;6.548;2023-03-31T05:23:08;9.60;99.90
51902;DHT22;37929;53.218;6.548;2023-03-31T05:25:34;9.60;99.90
51902;DHT22;37929;53.218;6.548;2023-03-31T05:28:00;9.60;99.90
51902;DHT22;37929;53.218;6.548;2023-03-31T05:30:29;9.60;99.90
51902;DHT22;37929;53.218;6.548;2023-03-31T05:32:55;9.60;99.90
51902;DHT22;37929;53.218;6.548;2023-03-31T05:35:21;9.60;99.90
51902;DHT22;37929;53.218;6.548;2023-03-31T05:37:47;9.60;99.90
51902;DHT22;37929;53.218;6.548;2023-03-31T05:40:13;9.70;99.90
51902;DHT22;37929;53.218;6.548;2023-03-31T05:42:38;9.70;99.90
51902;DHT22;37929;53.218;6.548;2023-03-31T05:45:07;9.70;99.90
51902;DHT22;37929;53.218;6.548;2023-03-31T05:47:33;9.80;99.90
51902;DHT22;37929;53.218;6.548;2023-03-31T05:49:58;9.80;99.90
51902;DHT22;37929;53.218;6.548;2023-03-31T05:52:25;9.80;99.90
51902;DHT22;37929;53.218;6.548;2023-03-31T05:54:50;9.80;99.90
51902;DHT22;37929;53.218;6.548;2023-03-31T05:57:16;9.90;99.90
51902;DHT22;37929;53.218;6.548;2023-03-31T05:59:42;9.80;99.90
51902;DHT22;37929;53.218;6.548;2023-03-31T06:02:12;9.90;99.90
51902;DHT22;37929;53.218;6.548;2023-03-31T06:04:37;9.80;99.90
51902;DHT22;37929;53.218;6.548;2023-03-31T06:07:04;9.90;99.90
51902;DHT22;37929;53.218;6.548;2023-03-31T06:09:30;9.90;99.90
51902;DHT22;37929;53.218;6.548;2023-03-31T06:11:56;9.90;99.90
51902;DHT22;37929;53.218;6.548;2023-03-31T06:14:21;9.80;99.90
51902;DHT22;37929;53.218;6.548;2023-03-31T06:16:47;9.90;99.90
51902;DHT22;37929;53.218;6.548;2023-03-31T06:19:14;9.80;99.90
51902;DHT22;37929;53.218;6.548;2023-03-31T06:21:42;9.80;99.90
51902;DHT22;37929;53.218;6.548;2023-03-31T06:24:09;9.80;99.90
51902;DHT22;37929;53.218;6.548;2023-03-31T06:26:35;9.90;99.90
51902;DHT22;37929;53.218;6.548;2023-03-31T06:29:01;9.80;99.90
51902;DHT22;37929;53.218;6.548;2023-03-31T06:31:27;9.80;99.90
51902;DHT22;37929;53.218;6.548;2023-03-31T06:33:53;9.80;99.90
51902;DHT22;37929;53.218;6.548;2023-03-31T06:36:20;9.80;99.90
51902;DHT22;37929;53.218;6.548;2023-03-31T06:38:48;9.80;99.90
51902;DHT22;37929;53.218;6.548;2023-03-31T06:41:15;9.80;99.90
51902;DHT22;37929;53.218;6.548;2023-03-31T06:43:41;9.80;99.90
51902;DHT22;37929;53.218;6.548;2023-03-31T06:46:08;9.80;99.90
51902;DHT22;37929;53.218;6.548;2023-03-31T06:48:34;9.80;99.90
51902;DHT22;37929;53.218;6.548;2023-03-31T06:51:02;9.80;99.90
51902;DHT22;37929;53.218;6.548;2023-03-31T06:53:28;9.80;99.90
51902;DHT22;37929;53.218;6.548;2023-03-31T06:55:54;9.80;99.90
51902;DHT22;37929;53.218;6.548;2023-03-31T06:58:20;9.80;99.90
51902;DHT22;37929;53.218;6.548;2023-03-31T07:00:47;9.80;99.90
51902;DHT22;37929;53.218;6.548;2023-03-31T07:03:13;9.80;99.90
51902;DHT22;37929;53.218;6.548;2023-03-31T07:05:50;9.80;99.90
51902;DHT22;37929;53.218;6.548;2023-03-31T07:08:16;9.80;99.90
51902;DHT22;37929;53.218;6.548;2023-03-31T07:10:42;9.80;99.90
51902;DHT22;37929;53.218;6.548;2023-03-31T07:13:12;9.80;99.90
51902;DHT22;37929;53.218;6.548;2023-03-31T07:15:38;9.80;99.90
51902;DHT22;37929;53.218;6.548;2023-03-31T07:18:03;9.80;99.90
51902;DHT22;37929;53.218;6.548;2023-03-31T07:20:29;9.80;99.90
51902;DHT22;37929;53.218;6.548;2023-03-31T07:22:55;9.80;99.90
51902;DHT22;37929;53.218;6.548;2023-03-31T07:25:21;9.80;99.90
51902;DHT22;37929;53.218;6.548;2023-03-31T07:27:47;9.80;99.90
51902;DHT22;37929;53.218;6.548;2023-03-31T07:30:16;9.80;99.90
51902;DHT22;37929;53.218;6.548;2023-03-31T07:32:42;9.80;99.90
51902;DHT22;37929;53.218;6.548;2023-03-31T07:35:10;9.80;99.90
51902;DHT22;37929;53.218;6.548;2023-03-31T07:37:40;9.80;99.90
51902;DHT22;37929;53.218;6.548;2023-03-31T07:40:10;9.80;99.90
51902;DHT22;37929;53.218;6.548;2023-03-31T07:42:37;9.80;99.90
51902;DHT22;37929;53.218;6.548;2023-03-31T07:45:03;9.80;99.90
51902;DHT22;37929;53.218;6.548;2023-03-31T07:47:31;9.80;99.90
51902;DHT22;37929;53.218;6.548;2023-03-31T07:49:57;9.90;99.90
51902;DHT22;37929;53.218;6.548;2023-03-31T07:52:22;9.90;99.90
51902;DHT22;37929;53.218;6.548;2023-03-31T07:54:48;9.80;99.90
51902;DHT22;37929;53.218;6.548;2023-03-31T07:57:14;9.90;99.90
51902;DHT22;37929;53.218;6.548;2023-03-31T07:59:42;9.90;99.90
51902;DHT22;37929;53.218;6.548;2023-03-31T08:02:12;9.90;99.90
51902;DHT22;37929;53.218;6.548;2023-03-31T08:04:38;9.90;99.90
51902;DHT22;37929;53.218;6.548;2023-03-31T08:07:07;9.90;99.90
51902;DHT22;37929;53.218;6.548;2023-03-31T08:09:33;9.90;99.90
51902;DHT22;37929;53.218;6.548;2023-03-31T08:11:59;9.90;99.90
51902;DHT22;37929;53.218;6.548;2023-03-31T08:14:24;9.90;99.90
51902;DHT22;37929;53.218;6.548;2023-03-31T08:16:50;9.90;99.90
51902;DHT22;37929;53.218;6.548;2023-03-31T08:19:17;9.90;99.90
51902;DHT22;37929;53.218;6.548;2023-03-31T08:21:43;9.90;99.90
51902;DHT22;37929;53.218;6.548;2023-03-31T08:24:09;9.90;99.90
51902;DHT22;37929;53.218;6.548;2023-03-31T08:26:35;9.90;99.90
51902;DHT22;37929;53.218;6.548;2023-03-31T08:29:01;9.90;99.90
51902;DHT22;37929;53.218;6.548;2023-03-31T08:31:28;9.90;99.90
51902;DHT22;37929;53.218;6.548;2023-03-31T08:33:55;9.80;99.90
51902;DHT22;37929;53.218;6.548;2023-03-31T08:36:21;9.80;99.90
51902;DHT22;37929;53.218;6.548;2023-03-31T08:38:48;9.80;99.90
51902;DHT22;37929;53.218;6.548;2023-03-31T08:41:46;9.80;99.90
51902;DHT22;37929;53.218;6.548;2023-03-31T08:44:38;9.80;99.90
51902;DHT22;37929;53.218;6.548;2023-03-31T08:47:08;9.80;99.90
51902;DHT22;37929;53.218;6.548;2023-03-31T08:49:44;9.80;99.90
51902;DHT22;37929;53.218;6.548;2023-03-31T08:52:21;9.90;99.90
51902;DHT22;37929;53.218;6.548;2023-03-31T08:54:51;9.90;99.90
51902;DHT22;37929;53.218;6.548;2023-03-31T08:57:30;9.90;99.90
51902;DHT22;37929;53.218;6.548;2023-03-31T08:59:57;10.00;99.90
51902;DHT22;37929;53.218;6.548;2023-03-31T09:02:45;10.00;99.90
51902;DHT22;37929;53.218;6.548;2023-03-31T09:11:42;10.00;99.90
51902;DHT22;37929;53.218;6.548;2023-03-31T09:17:17;10.10;99.90
51902;DHT22;37929;53.218;6.548;2023-03-31T09:19:51;10.20;99.90
51902;DHT22;37929;53.218;6.548;2023-03-31T09:22:26;10.20;99.90
51902;DHT22;37929;53.218;6.548;2023-03-31T09:25:29;10.20;99.90
51902;DHT22;37929;53.218;6.548;2023-03-31T09:27:58;10.20;99.90
51902;DHT22;37929;53.218;6.548;2023-03-31T09:30:28;10.20;99.90
51902;DHT22;37929;53.218;6.548;2023-03-31T09:33:13;10.20;99.90
51902;DHT22;37929;53.218;6.548;2023-03-31T09:35:40;10.20;99.90
51902;DHT22;37929;53.218;6.548;2023-03-31T09:38:08;10.30;99.90
51902;DHT22;37929;53.218;6.548;2023-03-31T09:40:34;10.30;99.90
51902;DHT22;37929;53.218;6.548;2023-03-31T09:43:09;10.30;99.90
51902;DHT22;37929;53.218;6.548;2023-03-31T09:45:36;10.30;99.90
51902;DHT22;37929;53.218;6.548;2023-03-31T09:48:09;10.30;99.90
51902;DHT22;37929;53.218;6.548;2023-03-31T09:50:51;10.40;99.90
51902;DHT22;37929;53.218;6.548;2023-03-31T09:53:36;10.40;99.90
51902;DHT22;37929;53.218;6.548;2023-03-31T09:56:05;10.40;99.90
51902;DHT22;37929;53.218;6.548;2023-03-31T09:58:43;10.40;99.90
51902;DHT22;37929;53.218;6.548;2023-03-31T10:01:13;10.50;99.90
51902;DHT22;37929;53.218;6.548;2023-03-31T10:03:51;10.60;99.90
51902;DHT22;37929;53.218;6.548;2023-03-31T10:06:18;10.60;99.90
51902;DHT22;37929;53.218;6.548;2023-03-31T10:08:50;10.70;99.90
51902;DHT22;37929;53.218;6.548;2023-03-31T10:11:18;10.70;99.90
51902;DHT22;37929;53.218;6.548;2023-03-31T10:14:04;10.80;99.90
51902;DHT22;37929;53.218;6.548;2023-03-31T10:16:33;10.80;99.90
51902;DHT22;37929;53.218;6.548;2023-03-31T10:19:19;10.80;99.90
51902;DHT22;37929;53.218;6.548;2023-03-31T10:21:48;10.80;99.90
51902;DHT22;37929;53.218;6.548;2023-03-31T10:24:20;10.90;99.90
51902;DHT22;37929;53.218;6.548;2023-03-31T10:26:48;10.90;99.90
51902;DHT22;37929;53.218;6.548;2023-03-31T10:29:19;10.90;99.90
51902;DHT22;37929;53.218;6.548;2023-03-31T10:31:50;11.00;99.90
51902;DHT22;37929;53.218;6.548;2023-03-31T10:34:17;10.90;99.90
51902;DHT22;37929;53.218;6.548;2023-03-31T10:36:48;10.80;99.90
51902;DHT22;37929;53.218;6.548;2023-03-31T10:39:16;10.80;99.90
51902;DHT22;37929;53.218;6.548;2023-03-31T10:41:51;10.70;99.90
51902;DHT22;37929;53.218;6.548;2023-03-31T10:44:34;10.70;99.90
51902;DHT22;37929;53.218;6.548;2023-03-31T10:49:42;10.70;99.90
51902;DHT22;37929;53.218;6.548;2023-03-31T10:52:23;10.70;99.90
51902;DHT22;37929;53.218;6.548;2023-03-31T10:54:53;10.70;99.90
51902;DHT22;37929;53.218;6.548;2023-03-31T10:58:08;10.80;99.90
51902;DHT22;37929;53.218;6.548;2023-03-31T11:06:25;10.90;99.90
51902;DHT22;37929;53.218;6.548;2023-03-31T11:14:28;11.10;99.90
51902;DHT22;37929;53.218;6.548;2023-03-31T11:17:10;11.20;99.90
51902;DHT22;37929;53.218;6.548;2023-03-31T11:22:50;11.40;99.90
51902;DHT22;37929;53.218;6.548;2023-03-31T11:25:43;11.40;99.90
51902;DHT22;37929;53.218;6.548;2023-03-31T11:33:58;11.70;99.90
51902;DHT22;37929;53.218;6.548;2023-03-31T11:39:15;11.90;99.90
51902;DHT22;37929;53.218;6.548;2023-03-31T11:41:57;12.10;99.90
51902;DHT22;37929;53.218;6.548;2023-03-31T11:44:27;12.10;99.90
51902;DHT22;37929;53.218;6.548;2023-03-31T11:47:12;12.20;99.90
51902;DHT22;37929;53.218;6.548;2023-03-31T11:49:53;12.30;99.90
51902;DHT22;37929;53.218;6.548;2023-03-31T11:52:26;12.30;99.90
51902;DHT22;37929;53.218;6.548;2023-03-31T11:57:37;12.30;99.90
51902;DHT22;37929;53.218;6.548;2023-03-31T12:00:16;12.30;99.90
51902;DHT22;37929;53.218;6.548;2023-03-31T12:03:07;12.30;99.90
51902;DHT22;37929;53.218;6.548;2023-03-31T12:05:37;12.30;99.90
51902;DHT22;37929;53.218;6.548;2023-03-31T12:10:36;12.20;99.90
51902;DHT22;37929;53.218;6.548;2023-03-31T12:15:53;11.90;99.90
51902;DHT22;37929;53.218;6.548;2023-03-31T12:18:28;11.80;99.90
51902;DHT22;37929;53.218;6.548;2023-03-31T12:20:59;11.70;99.90
51902;DHT22;37929;53.218;6.548;2023-03-31T12:23:34;11.60;99.90
51902;DHT22;37929;53.218;6.548;2023-03-31T12:26:33;11.60;99.90
51902;DHT22;37929;53.218;6.548;2023-03-31T12:29:06;11.50;99.90
51902;DHT22;37929;53.218;6.548;2023-03-31T12:31:39;11.40;99.90
51902;DHT22;37929;53.218;6.548;2023-03-31T12:34:15;11.40;99.90
51902;DHT22;37929;53.218;6.548;2023-03-31T12:44:56;11.50;99.90
51902;DHT22;37929;53.218;6.548;2023-03-31T12:53:19;11.70;99.90
51902;DHT22;37929;53.218;6.548;2023-03-31T12:55:54;11.90;99.90
51902;DHT22;37929;53.218;6.548;2023-03-31T13:03:45;12.10;99.90
51902;DHT22;37929;53.218;6.548;2023-03-31T13:16:32;12.30;99.90
51902;DHT22;37929;53.218;6.548;2023-03-31T13:18:59;12.30;99.90
51902;DHT22;37929;53.218;6.548;2023-03-31T13:21:26;12.30;99.90
51902;DHT22;37929;53.218;6.548;2023-03-31T13:23:52;12.40;99.90
51902;DHT22;37929;53.218;6.548;2023-03-31T13:26:37;12.40;99.90
51902;DHT22;37929;53.218;6.548;2023-03-31T13:29:19;12.50;99.90
51902;DHT22;37929;53.218;6.548;2023-03-31T13:37:44;12.70;99.90
51902;DHT22;37929;53.218;6.548;2023-03-31T13:43:18;12.60;99.90
51902;DHT22;37929;53.218;6.548;2023-03-31T13:52:02;12.40;99.90
51902;DHT22;37929;53.218;6.548;2023-03-31T14:00:55;11.70;99.90
51902;DHT22;37929;53.218;6.548;2023-03-31T14:04:20;11.60;99.90
51902;DHT22;37929;53.218;6.548;2023-03-31T14:09:04;11.20;99.90
51902;DHT22;37929;53.218;6.548;2023-03-31T14:11:32;11.10;99.90
51902;DHT22;37929;53.218;6.548;2023-03-31T14:14:03;11.10;99.90
51902;DHT22;37929;53.218;6.548;2023-03-31T14:16:54;11.30;99.90
51902;DHT22;37929;53.218;6.548;2023-03-31T14:28:13;11.50;99.90
51902;DHT22;37929;53.218;6.548;2023-03-31T14:30:58;11.50;99.90
51902;DHT22;37929;53.218;6.548;2023-03-31T14:36:25;11.40;99.90
51902;DHT22;37929;53.218;6.548;2023-03-31T14:39:00;11.30;99.90
51902;DHT22;37929;53.218;6.548;2023-03-31T14:41:27;11.20;99.90
51902;DHT22;37929;53.218;6.548;2023-03-31T14:43:59;11.30;99.90
51902;DHT22;37929;53.218;6.548;2023-03-31T14:46:26;11.40;99.90
51902;DHT22;37929;53.218;6.548;2023-03-31T14:48:54;11.50;99.90
51902;DHT22;37929;53.218;6.548;2023-03-31T14:51:27;11.60;99.90
51902;DHT22;37929;53.218;6.548;2023-03-31T14:53:58;11.70;99.90
51902;DHT22;37929;53.218;6.548;2023-03-31T14:56:33;11.70;99.90
51902;DHT22;37929;53.218;6.548;2023-03-31T14:59:02;11.80;99.90
51902;DHT22;37929;53.218;6.548;2023-03-31T15:01:32;11.90;99.90
51902;DHT22;37929;53.218;6.548;2023-03-31T15:04:13;11.90;99.90
51902;DHT22;37929;53.218;6.548;2023-03-31T15:06:40;11.80;99.90
51902;DHT22;37929;53.218;6.548;2023-03-31T15:09:11;11.80;99.90
51902;DHT22;37929;53.218;6.548;2023-03-31T15:11:39;11.80;99.90
51902;DHT22;37929;53.218;6.548;2023-03-31T15:14:09;11.70;99.90
51902;DHT22;37929;53.218;6.548;2023-03-31T15:16:44;11.70;99.90
51902;DHT22;37929;53.218;6.548;2023-03-31T15:19:15;11.60;99.90
51902;DHT22;37929;53.218;6.548;2023-03-31T15:21:42;11.60;99.90
51902;DHT22;37929;53.218;6.548;2023-03-31T15:24:13;11.60;99.90
51902;DHT22;37929;53.218;6.548;2023-03-31T15:27:09;11.60;99.90
51902;DHT22;37929;53.218;6.548;2023-03-31T15:29:46;11.60;99.90
51902;DHT22;37929;53.218;6.548;2023-03-31T15:32:34;11.50;99.90
51902;DHT22;37929;53.218;6.548;2023-03-31T15:35:00;11.50;99.90
51902;DHT22;37929;53.218;6.548;2023-03-31T15:37:40;11.50;99.90
51902;DHT22;37929;53.218;6.548;2023-03-31T15:40:18;11.50;99.90
51902;DHT22;37929;53.218;6.548;2023-03-31T15:42:46;11.50;99.90
51902;DHT22;37929;53.218;6.548;2023-03-31T15:45:50;11.40;99.90
51902;DHT22;37929;53.218;6.548;2023-03-31T15:48:17;11.40;99.90
51902;DHT22;37929;53.218;6.548;2023-03-31T15:50:44;11.40;99.90
51902;DHT22;37929;53.218;6.548;2023-03-31T15:53:23;11.40;99.90
51902;DHT22;37929;53.218;6.548;2023-03-31T15:55:54;11.40;99.90
51902;DHT22;37929;53.218;6.548;2023-03-31T15:58:23;11.40;99.90
51902;DHT22;37929;53.218;6.548;2023-03-31T16:01:01;11.30;99.90
51902;DHT22;37929;53.218;6.548;2023-03-31T16:03:34;11.40;99.90
51902;DHT22;37929;53.218;6.548;2023-03-31T16:08:56;11.40;99.90
51902;DHT22;37929;53.218;6.548;2023-03-31T16:11:33;11.40;99.90
51902;DHT22;37929;53.218;6.548;2023-03-31T16:14:09;11.40;99.90
51902;DHT22;37929;53.218;6.548;2023-03-31T16:16:39;11.40;99.90
51902;DHT22;37929;53.218;6.548;2023-03-31T16:19:09;11.40;99.90
51902;DHT22;37929;53.218;6.548;2023-03-31T16:21:45;11.40;99.90
51902;DHT22;37929;53.218;6.548;2023-03-31T16:24:28;11.40;99.90
51902;DHT22;37929;53.218;6.548;2023-03-31T16:27:00;11.40;99.90
51902;DHT22;37929;53.218;6.548;2023-03-31T16:29:34;11.40;99.90
51902;DHT22;37929;53.218;6.548;2023-03-31T16:32:15;11.40;99.90
51902;DHT22;37929;53.218;6.548;2023-03-31T16:37:21;11.40;99.90
51902;DHT22;37929;53.218;6.548;2023-03-31T16:39:46;11.40;99.90
51902;DHT22;37929;53.218;6.548;2023-03-31T16:42:12;11.40;99.90
51902;DHT22;37929;53.218;6.548;2023-03-31T16:44:38;11.40;99.90
51902;DHT22;37929;53.218;6.548;2023-03-31T16:47:03;11.40;99.90
51902;DHT22;37929;53.218;6.548;2023-03-31T16:49:30;11.40;99.90
51902;DHT22;37929;53.218;6.548;2023-03-31T16:51:56;11.40;99.90
51902;DHT22;37929;53.218;6.548;2023-03-31T16:54:21;11.30;99.90
51902;DHT22;37929;53.218;6.548;2023-03-31T16:56:47;11.30;99.90
51902;DHT22;37929;53.218;6.548;2023-03-31T16:59:13;11.20;99.90
51902;DHT22;37929;53.218;6.548;2023-03-31T17:01:39;11.20;99.90
51902;DHT22;37929;53.218;6.548;2023-03-31T17:04:05;11.20;99.90
51902;DHT22;37929;53.218;6.548;2023-03-31T17:06:32;11.20;99.90
51902;DHT22;37929;53.218;6.548;2023-03-31T17:08:57;11.20;99.90
51902;DHT22;37929;53.218;6.548;2023-03-31T17:11:23;11.20;99.90
51902;DHT22;37929;53.218;6.548;2023-03-31T17:13:49;11.20;99.90
51902;DHT22;37929;53.218;6.548;2023-03-31T17:16:15;11.20;99.90
51902;DHT22;37929;53.218;6.548;2023-03-31T17:18:43;11.20;99.90
51902;DHT22;37929;53.218;6.548;2023-03-31T17:21:11;11.20;99.90
51902;DHT22;37929;53.218;6.548;2023-03-31T17:23:38;11.20;99.90
51902;DHT22;37929;53.218;6.548;2023-03-31T17:26:05;11.20;99.90
51902;DHT22;37929;53.218;6.548;2023-03-31T17:28:31;11.10;99.90
51902;DHT22;37929;53.218;6.548;2023-03-31T17:30:57;11.10;99.90
51902;DHT22;37929;53.218;6.548;2023-03-31T17:33:24;11.00;99.90
51902;DHT22;37929;53.218;6.548;2023-03-31T17:35:51;11.00;99.90
51902;DHT22;37929;53.218;6.548;2023-03-31T17:38:19;10.90;99.90
51902;DHT22;37929;53.218;6.548;2023-03-31T17:40:46;10.90;99.90
51902;DHT22;37929;53.218;6.548;2023-03-31T17:43:12;10.80;99.90
51902;DHT22;37929;53.218;6.548;2023-03-31T17:45:38;10.80;99.90
51902;DHT22;37929;53.218;6.548;2023-03-31T17:48:04;10.80;99.90
51902;DHT22;37929;53.218;6.548;2023-03-31T17:50:31;10.70;99.90
51902;DHT22;37929;53.218;6.548;2023-03-31T17:52:57;10.70;99.90
51902;DHT22;37929;53.218;6.548;2023-03-31T17:55:23;10.70;99.90
51902;DHT22;37929;53.218;6.548;2023-03-31T17:57:50;10.70;99.90
51902;DHT22;37929;53.218;6.548;2023-03-31T18:00:15;10.70;99.90
51902;DHT22;37929;53.218;6.548;2023-03-31T18:02:41;10.70;99.90
51902;DHT22;37929;53.218;6.548;2023-03-31T18:05:08;10.70;99.90
51902;DHT22;37929;53.218;6.548;2023-03-31T18:07:35;10.70;99.90
51902;DHT22;37929;53.218;6.548;2023-03-31T18:10:02;10.70;99.90
51902;DHT22;37929;53.218;6.548;2023-03-31T18:12:30;10.80;99.90
51902;DHT22;37929;53.218;6.548;2023-03-31T18:14:57;10.70;99.90
51902;DHT22;37929;53.218;6.548;2023-03-31T18:17:23;10.80;99.90
51902;DHT22;37929;53.218;6.548;2023-03-31T18:19:48;10.70;99.90
51902;DHT22;37929;53.218;6.548;2023-03-31T18:22:15;10.70;99.90
51902;DHT22;37929;53.218;6.548;2023-03-31T18:24:40;10.60;99.90
51902;DHT22;37929;53.218;6.548;2023-03-31T18:27:06;11.30;99.90
51902;DHT22;37929;53.218;6.548;2023-03-31T18:29:32;10.50;99.90
51902;DHT22;37929;53.218;6.548;2023-03-31T18:31:58;10.50;99.90
51902;DHT22;37929;53.218;6.548;2023-03-31T18:34:24;10.40;99.90
51902;DHT22;37929;53.218;6.548;2023-03-31T18:36:50;10.40;99.90
51902;DHT22;37929;53.218;6.548;2023-03-31T18:39:15;10.40;99.90